Terminal Aerodrome Forecast
Issued by NWS

Current Version | Previous Version | Text Only | Print | Product List | Glossary On
Versions: 1 2 3 4 5 6 7 8 9 10 11 12
000
FTUS43 KDDC 201720
TAFHYS
TAF
KHYS 201720Z 2018/2118 00000KT P6SM SKC
     FM210400 07006KT P6SM SCT035
     FM210800 04006KT P6SM BKN003
     FM211000 04006KT 5SM BR BKN003
     FM211300 02007KT P6SM BKN003=

USA.gov is the U.S. government's official web portal to all federal, state and local government web resources and services.